createdAt,value
2023-09-09T00:02:26.582Z,7.73
2023-09-09T00:04:55.639Z,7.03
2023-09-09T00:07:23.957Z,7.30
2023-09-09T00:09:53.411Z,6.53
2023-09-09T00:12:21.512Z,6.17
2023-09-09T00:14:49.419Z,7.47
2023-09-09T00:17:17.671Z,6.83
2023-09-09T00:19:45.847Z,5.90
2023-09-09T00:22:14.034Z,7.23
2023-09-09T00:24:42.427Z,7.17
2023-09-09T00:27:12.241Z,6.50
2023-09-09T00:29:40.304Z,7.10
2023-09-09T00:32:08.273Z,7.38
2023-09-09T00:34:36.577Z,7.60
2023-09-09T00:37:05.524Z,7.20
2023-09-09T00:39:33.545Z,7.40
2023-09-09T00:42:01.586Z,7.37
2023-09-09T00:44:31.064Z,6.83
2023-09-09T00:47:01.311Z,6.40
2023-09-09T00:49:29.931Z,7.37
2023-09-09T00:51:58.537Z,7.57
2023-09-09T00:54:26.581Z,6.90
2023-09-09T00:56:54.604Z,6.27
2023-09-09T00:59:22.937Z,6.80
2023-09-09T01:01:52.777Z,6.83
2023-09-09T01:11:49.306Z,7.23
2023-09-09T01:14:17.810Z,7.70
2023-09-09T01:16:47.888Z,6.93
2023-09-09T01:19:19.265Z,6.60
2023-09-09T01:21:48.918Z,7.40
2023-09-09T01:24:18.918Z,6.97
2023-09-09T01:26:47.558Z,6.50
2023-09-09T01:29:15.894Z,6.83
2023-09-09T01:31:43.914Z,7.90
2023-09-09T01:34:12.281Z,7.43
2023-09-09T01:36:40.355Z,6.73
2023-09-09T01:39:08.584Z,7.13
2023-09-09T01:41:38.033Z,7.97
2023-09-09T01:44:06.676Z,7.37
2023-09-09T01:46:35.014Z,7.40
2023-09-09T01:49:04.465Z,6.37
2023-09-09T01:51:34.578Z,6.83
2023-09-09T01:54:02.626Z,7.10
2023-09-09T01:56:30.632Z,6.43
2023-09-09T01:59:02.150Z,7.40
2023-09-09T02:01:30.195Z,6.70
2023-09-09T02:03:58.422Z,6.37
2023-09-09T02:06:28.282Z,6.73
2023-09-09T02:08:58.268Z,6.27
2023-09-09T02:11:26.657Z,6.97
2023-09-09T02:13:54.891Z,6.63
2023-09-09T02:16:24.429Z,7.57
2023-09-09T02:18:52.643Z,7.43
2023-09-09T02:21:20.789Z,6.90
2023-09-09T02:23:49.022Z,6.60
2023-09-09T02:26:17.140Z,6.50
2023-09-09T02:28:47.138Z,6.53
2023-09-09T02:31:15.303Z,7.67
2023-09-09T02:33:44.912Z,6.73
2023-09-09T02:36:12.961Z,8.90
2023-09-09T02:38:40.990Z,7.47
2023-09-09T02:41:09.138Z,7.47
2023-09-09T02:43:37.741Z,6.93
2023-09-09T02:46:06.250Z,6.70
2023-09-09T02:48:34.362Z,6.60
2023-09-09T02:51:03.804Z,7.40
2023-09-09T02:53:31.962Z,6.50
2023-09-09T02:56:00.002Z,7.27
2023-09-09T02:58:28.307Z,7.23
2023-09-09T03:01:04.061Z,7.70
2023-09-09T03:03:32.887Z,8.77
2023-09-09T03:06:03.046Z,6.77
2023-09-09T03:08:32.128Z,6.20
2023-09-09T03:11:00.403Z,7.23
2023-09-09T03:13:28.733Z,6.70
2023-09-09T03:15:56.985Z,7.33
2023-09-09T03:18:25.123Z,6.63
2023-09-09T03:20:55.230Z,7.97
2023-09-09T03:23:24.718Z,7.93
2023-09-09T03:25:53.230Z,7.53
2023-09-09T03:28:21.304Z,6.80
2023-09-09T03:30:56.460Z,7.63
2023-09-09T03:33:25.005Z,6.87
2023-09-09T03:35:53.156Z,7.50
2023-09-09T03:38:21.444Z,7.10
2023-09-09T03:40:50.969Z,7.43
2023-09-09T03:43:19.034Z,7.80
2023-09-09T03:45:47.207Z,9.03
2023-09-09T03:48:15.231Z,7.40
2023-09-09T03:50:43.345Z,7.97
2023-09-09T03:53:11.533Z,7.37
2023-09-09T03:55:39.555Z,7.70
2023-09-09T03:58:08.991Z,8.80
2023-09-09T04:00:38.651Z,6.27
2023-09-09T04:03:06.791Z,6.90
2023-09-09T04:05:34.954Z,7.83
2023-09-09T04:08:04.635Z,8.40
2023-09-09T04:10:32.637Z,7.33
2023-09-09T04:13:00.525Z,8.50
2023-09-09T04:15:30.060Z,7.50
2023-09-09T04:17:58.243Z,7.17
2023-09-09T04:20:45.930Z,8.10
2023-09-09T04:23:13.854Z,7.30
2023-09-09T04:25:41.865Z,7.60
2023-09-09T04:28:11.077Z,7.20
2023-09-09T04:30:40.798Z,7.47
2023-09-09T04:33:09.391Z,7.00
2023-09-09T04:35:37.341Z,7.23
2023-09-09T04:38:05.533Z,6.93
2023-09-09T04:40:33.435Z,6.47
2023-09-09T04:43:01.358Z,7.30
2023-09-09T04:45:29.298Z,7.80
2023-09-09T04:48:00.673Z,6.43
2023-09-09T04:50:30.487Z,6.70
2023-09-09T04:52:58.319Z,6.90
2023-09-09T04:55:26.240Z,6.60
2023-09-09T04:57:54.164Z,7.10
2023-09-09T05:00:22.127Z,7.73
2023-09-09T05:02:49.996Z,7.10
2023-09-09T05:05:19.425Z,7.10
2023-09-09T05:07:47.290Z,7.20
2023-09-09T05:10:15.141Z,7.50
2023-09-09T05:12:46.381Z,6.97
2023-09-09T05:15:14.810Z,8.33
2023-09-09T05:17:42.899Z,6.43
2023-09-09T05:20:12.240Z,7.43
2023-09-09T05:22:41.493Z,7.53
2023-09-09T05:25:09.620Z,7.20
2023-09-09T05:27:37.447Z,8.73
2023-09-09T05:30:06.483Z,6.67
2023-09-09T05:32:35.609Z,6.83
2023-09-09T05:35:03.666Z,7.20
2023-09-09T05:37:33.032Z,7.87
2023-09-09T05:40:04.357Z,8.13
2023-09-09T05:42:32.894Z,7.73
2023-09-09T05:45:00.748Z,6.70
2023-09-09T05:47:29.246Z,8.13
2023-09-09T05:49:57.284Z,7.93
2023-09-09T05:52:25.083Z,6.93
2023-09-09T05:54:52.936Z,8.00
2023-09-09T05:57:22.295Z,7.30
2023-09-09T05:59:50.228Z,6.97
2023-09-09T06:02:18.264Z,7.10
2023-09-09T06:04:46.459Z,8.10
2023-09-09T06:07:14.498Z,7.30
2023-09-09T06:09:42.351Z,7.70
2023-09-09T06:12:10.357Z,7.10
2023-09-09T06:14:39.608Z,8.07
2023-09-09T06:17:07.514Z,7.80
2023-09-09T06:19:35.465Z,7.87
2023-09-09T06:22:03.425Z,7.73
2023-09-09T06:24:31.261Z,7.27
2023-09-09T06:26:59.116Z,9.27
2023-09-09T06:29:29.873Z,8.50
2023-09-09T06:31:59.800Z,8.10
2023-09-09T06:34:28.004Z,8.33
2023-09-09T06:36:55.885Z,9.10
2023-09-09T06:39:23.749Z,9.60
2023-09-09T06:41:52.248Z,8.67
2023-09-09T06:44:20.092Z,8.90
2023-09-09T06:46:48.464Z,9.40
2023-09-09T06:49:18.171Z,9.77
2023-09-09T06:51:46.085Z,9.17
2023-09-09T06:54:14.096Z,8.23
2023-09-09T06:56:41.929Z,9.63
2023-09-09T06:59:09.992Z,9.03
2023-09-09T07:01:38.178Z,8.63
2023-09-09T07:04:06.800Z,8.33
2023-09-09T07:06:36.702Z,9.27
2023-09-09T07:09:04.747Z,8.80
2023-09-09T07:11:32.794Z,7.43
2023-09-09T07:14:00.919Z,9.40
2023-09-09T07:16:32.208Z,8.57
2023-09-09T07:19:00.240Z,7.87
2023-09-09T07:21:28.102Z,9.37
2023-09-09T07:23:57.544Z,7.80
2023-09-09T07:26:26.430Z,9.23
2023-09-09T07:28:54.800Z,8.17
2023-09-09T07:31:23.182Z,8.07
2023-09-09T07:33:53.678Z,7.00
2023-09-09T07:36:21.596Z,6.90
2023-09-09T07:38:49.702Z,6.40
2023-09-09T07:41:19.225Z,7.30
2023-09-09T07:43:56.129Z,6.10
2023-09-09T07:46:44.663Z,6.33
2023-09-09T07:49:32.178Z,6.70
2023-09-09T07:55:03.870Z,6.00
2023-09-09T07:58:15.645Z,6.37
2023-09-09T08:12:29.593Z,5.50
2023-09-09T08:16:05.146Z,5.77
2023-09-09T08:19:07.717Z,6.00
2023-09-09T08:22:17.438Z,5.27
2023-09-09T08:24:53.264Z,5.73
2023-09-09T08:28:22.964Z,6.00
2023-09-09T08:31:08.917Z,6.30
2023-09-09T08:34:08.924Z,6.13
2023-09-09T08:36:55.018Z,6.30
2023-09-09T08:39:40.904Z,6.70
2023-09-09T08:42:22.730Z,5.77
2023-09-09T08:45:01.547Z,6.13
2023-09-09T08:47:33.445Z,6.07
2023-09-09T08:53:12.152Z,5.50
2023-09-09T08:55:57.641Z,6.03
2023-09-09T08:58:50.798Z,5.17
2023-09-09T09:01:19.859Z,6.03
2023-09-09T09:03:49.083Z,5.53
2023-09-09T09:06:18.517Z,5.00
2023-09-09T09:08:46.384Z,5.70
2023-09-09T09:11:15.402Z,4.70
2023-09-09T09:13:43.452Z,5.37
2023-09-09T09:16:12.548Z,5.30
2023-09-09T09:18:40.959Z,5.87
2023-09-09T09:21:09.577Z,5.60
2023-09-09T09:23:45.795Z,5.30
2023-09-09T09:26:30.181Z,4.80
2023-09-09T09:28:58.668Z,5.47
2023-09-09T09:31:27.743Z,5.60
2023-09-09T09:33:58.321Z,5.93
2023-09-09T09:36:26.813Z,5.03
2023-09-09T09:38:59.094Z,5.40
2023-09-09T09:41:30.355Z,5.23
2023-09-09T09:43:58.778Z,5.20
2023-09-09T09:46:26.832Z,5.73
2023-09-09T09:48:54.690Z,5.27
2023-09-09T09:51:22.605Z,4.90
2023-09-09T09:53:55.960Z,4.97
2023-09-09T09:56:24.275Z,5.10
2023-09-09T09:58:52.558Z,5.27
2023-09-09T10:01:20.489Z,5.37
2023-09-09T10:03:52.481Z,5.50
2023-09-09T10:06:28.501Z,5.37
2023-09-09T10:09:19.252Z,4.80
2023-09-09T10:12:02.240Z,5.53
2023-09-09T10:14:31.185Z,4.90
2023-09-09T10:17:03.219Z,5.17
2023-09-09T10:19:44.792Z,4.93
2023-09-09T10:22:14.268Z,5.00
2023-09-09T10:24:55.557Z,4.60
2023-09-09T10:27:28.497Z,6.03
2023-09-09T10:30:45.655Z,4.43
2023-09-09T10:33:36.406Z,5.27
2023-09-09T10:36:10.166Z,5.23
2023-09-09T10:38:38.298Z,4.90
2023-09-09T10:41:28.518Z,4.30
2023-09-09T10:44:06.798Z,5.37
2023-09-09T10:46:59.584Z,5.20
2023-09-09T10:50:08.255Z,4.57
2023-09-09T10:53:21.667Z,4.57
2023-09-09T11:02:25.872Z,5.10
2023-09-09T11:05:17.655Z,5.10
2023-09-09T11:07:46.877Z,5.10
2023-09-09T11:10:18.110Z,5.33
2023-09-09T11:13:12.014Z,5.20
2023-09-09T11:15:57.125Z,5.77
2023-09-09T11:18:45.905Z,5.13
2023-09-09T11:21:17.380Z,5.07
2023-09-09T11:23:51.088Z,4.50
2023-09-09T11:26:26.746Z,4.80
2023-09-09T11:29:10.114Z,5.20
2023-09-09T11:32:05.357Z,5.43
2023-09-09T11:34:46.159Z,5.03
2023-09-09T11:37:14.915Z,5.50
2023-09-09T11:39:59.001Z,5.13
2023-09-09T11:42:29.398Z,5.20
2023-09-09T11:45:25.315Z,5.10
2023-09-09T11:48:06.339Z,5.83
2023-09-09T11:50:44.143Z,5.30
2023-09-09T11:53:14.487Z,5.87
2023-09-09T11:55:42.805Z,4.97
2023-09-09T11:58:19.741Z,4.80
2023-09-09T12:02:25.701Z,4.90
2023-09-09T12:05:09.936Z,5.80
2023-09-09T12:11:16.152Z,5.40
2023-09-09T12:14:02.368Z,5.10
2023-09-09T12:16:48.329Z,5.17
2023-09-09T12:19:59.032Z,5.47
2023-09-09T12:23:11.513Z,5.80
2023-09-09T12:26:14.403Z,5.53
2023-09-09T12:30:08.821Z,5.37
2023-09-09T12:35:46.255Z,6.33
2023-09-09T12:38:41.249Z,5.57
2023-09-09T12:41:31.927Z,6.30
2023-09-09T12:44:25.212Z,5.90
2023-09-09T12:46:53.906Z,6.57
2023-09-09T12:49:30.808Z,6.00
2023-09-09T12:52:13.232Z,6.37
2023-09-09T12:54:41.392Z,4.83
2023-09-09T12:57:09.542Z,5.87
2023-09-09T12:59:50.412Z,5.47
2023-09-09T13:02:30.481Z,5.53
2023-09-09T13:04:58.742Z,5.70
2023-09-09T13:07:28.314Z,5.80
2023-09-09T13:09:58.851Z,5.90
2023-09-09T13:12:26.980Z,5.70
2023-09-09T13:14:54.940Z,5.40
2023-09-09T13:17:26.261Z,5.93
2023-09-09T13:19:54.402Z,5.70
2023-09-09T13:22:22.607Z,6.27
2023-09-09T13:24:52.333Z,5.60
2023-09-09T13:27:27.353Z,6.30
2023-09-09T13:29:56.922Z,6.27
2023-09-09T13:32:25.359Z,5.77
2023-09-09T13:34:53.674Z,5.67
2023-09-09T13:37:21.705Z,6.10
2023-09-09T13:39:51.081Z,5.43
2023-09-09T13:42:19.370Z,6.17
2023-09-09T13:45:10.115Z,5.63
2023-09-09T13:47:38.065Z,5.30
2023-09-09T13:50:08.130Z,5.90
2023-09-09T13:52:36.489Z,6.50
2023-09-09T13:55:06.706Z,6.60
2023-09-09T13:57:35.317Z,5.57
2023-09-09T14:00:05.229Z,5.00
2023-09-09T14:02:33.437Z,6.63
2023-09-09T14:05:02.150Z,5.60
2023-09-09T14:07:30.399Z,5.33
2023-09-09T14:10:03.642Z,5.70
2023-09-09T14:12:43.830Z,5.43
2023-09-09T14:15:18.608Z,6.90
2023-09-09T14:17:50.114Z,5.57
2023-09-09T14:20:19.605Z,5.80
2023-09-09T14:23:08.284Z,6.10
2023-09-09T14:25:43.182Z,5.90
2023-09-09T14:28:12.587Z,6.17
2023-09-09T14:30:46.223Z,5.30
2023-09-09T14:33:16.188Z,6.20
2023-09-09T14:36:08.844Z,5.50
2023-09-09T14:38:44.329Z,6.27
2023-09-09T14:41:12.435Z,6.17
2023-09-09T14:43:47.342Z,6.30
2023-09-09T14:46:18.479Z,5.63
2023-09-09T14:49:12.253Z,5.97
2023-09-09T14:51:48.666Z,5.47
2023-09-09T14:54:33.865Z,5.47
2023-09-09T14:57:02.037Z,4.80
2023-09-09T15:00:02.749Z,5.93
2023-09-09T15:03:34.387Z,5.50
2023-09-09T15:06:11.511Z,6.13
2023-09-09T15:08:48.348Z,5.80
2023-09-09T15:11:28.568Z,4.90
2023-09-09T15:14:03.598Z,6.47
2023-09-09T15:19:24.878Z,5.53
2023-09-09T15:21:53.085Z,5.80
2023-09-09T15:24:20.960Z,5.90
2023-09-09T15:26:48.845Z,5.80
2023-09-09T15:29:16.737Z,5.43
2023-09-09T15:31:44.857Z,5.20
2023-09-09T15:34:12.973Z,6.40
2023-09-09T15:36:42.181Z,5.20
2023-09-09T15:39:11.324Z,5.43
2023-09-09T15:41:39.444Z,6.03
2023-09-09T15:44:07.474Z,5.93
2023-09-09T15:46:35.526Z,5.53
2023-09-09T15:49:03.937Z,5.45
2023-09-09T15:51:33.327Z,5.80
2023-09-09T15:54:02.990Z,5.50
2023-09-09T15:56:30.900Z,7.20
2023-09-09T15:58:58.813Z,6.10
2023-09-09T16:01:26.796Z,5.73
2023-09-09T16:03:54.806Z,5.57
2023-09-09T16:06:22.801Z,5.70
2023-09-09T16:08:50.694Z,5.70
2023-09-09T16:11:19.904Z,6.00
2023-09-09T16:13:47.789Z,5.60
2023-09-09T16:16:16.011Z,6.07
2023-09-09T16:18:43.954Z,5.30
2023-09-09T16:21:11.886Z,5.33
2023-09-09T16:23:39.764Z,5.80
2023-09-09T16:26:07.841Z,5.90
2023-09-09T16:28:37.446Z,5.70
2023-09-09T16:31:06.473Z,6.30
2023-09-09T16:33:34.596Z,5.70
2023-09-09T16:36:04.790Z,6.47
2023-09-09T16:38:33.046Z,5.60
2023-09-09T16:41:00.904Z,5.50
2023-09-09T16:43:28.855Z,5.63
2023-09-09T16:45:58.201Z,5.47
2023-09-09T16:48:26.236Z,5.70
2023-09-09T16:50:54.094Z,5.33
2023-09-09T16:53:22.350Z,5.33
2023-09-09T16:55:50.526Z,5.67
2023-09-09T16:58:18.604Z,5.60
2023-09-09T17:00:49.665Z,5.17
2023-09-09T17:03:19.312Z,5.90
2023-09-09T17:05:47.617Z,5.70
2023-09-09T17:08:15.639Z,6.57
2023-09-09T17:10:43.829Z,6.23
2023-09-09T17:13:11.809Z,6.03
2023-09-09T17:15:42.155Z,5.50
2023-09-09T17:18:10.352Z,6.30
2023-09-09T17:20:39.584Z,5.93
2023-09-09T17:23:07.424Z,6.30
2023-09-09T17:25:35.281Z,5.47
2023-09-09T17:28:03.162Z,5.70
2023-09-09T17:30:31.066Z,5.87
2023-09-09T17:32:58.966Z,5.80
2023-09-09T17:35:28.776Z,6.70
2023-09-09T17:37:58.052Z,5.53
2023-09-09T17:40:26.039Z,5.77
2023-09-09T17:42:54.582Z,5.80
2023-09-09T17:45:22.510Z,6.50
2023-09-09T17:47:50.424Z,5.97
2023-09-09T17:50:18.586Z,5.37
2023-09-09T17:52:46.529Z,5.40
2023-09-09T17:55:15.930Z,6.40
2023-09-09T17:57:43.782Z,6.20
2023-09-09T18:00:12.442Z,6.33
2023-09-09T18:02:43.055Z,6.10
2023-09-09T18:05:11.327Z,5.90
2023-09-09T18:07:39.266Z,5.90
2023-09-09T18:10:08.183Z,6.20
2023-09-09T18:12:38.052Z,6.13
2023-09-09T18:15:06.863Z,6.03
2023-09-09T18:17:35.016Z,5.70
2023-09-09T18:20:03.168Z,5.90
2023-09-09T18:22:31.139Z,6.00
2023-09-09T18:24:59.035Z,7.03
2023-09-09T18:27:26.867Z,6.60
2023-09-09T18:29:56.081Z,5.67
2023-09-09T18:32:24.005Z,6.27
2023-09-09T18:34:51.918Z,7.20
2023-09-09T18:37:21.697Z,5.80
2023-09-09T18:39:49.626Z,6.03
2023-09-09T18:42:17.635Z,6.33
2023-09-09T18:44:45.496Z,6.70
2023-09-09T18:47:14.779Z,6.60
2023-09-09T18:49:42.785Z,6.33
2023-09-09T18:52:10.712Z,6.30
2023-09-09T18:54:38.520Z,6.10
2023-09-09T18:57:09.884Z,6.90
2023-09-09T18:59:37.973Z,7.20
2023-09-09T19:02:06.282Z,6.43
2023-09-09T19:04:35.791Z,7.40
2023-09-09T19:07:03.826Z,6.40
2023-09-09T19:09:31.688Z,6.97
2023-09-09T19:11:59.634Z,6.37
2023-09-09T19:14:27.538Z,6.47
2023-09-09T19:16:55.890Z,6.20
2023-09-09T19:19:23.822Z,6.70
2023-09-09T19:21:53.019Z,6.45
2023-09-09T19:24:20.908Z,6.80
2023-09-09T19:26:48.793Z,7.90
2023-09-09T19:29:16.627Z,7.20
2023-09-09T19:31:44.573Z,6.30
2023-09-09T19:34:12.501Z,6.33
2023-09-09T19:36:45.136Z,6.40
2023-09-09T19:39:14.841Z,7.23
2023-09-09T19:41:44.389Z,6.57
2023-09-09T19:44:12.331Z,7.13
2023-09-09T19:46:40.228Z,8.00
2023-09-09T19:49:09.840Z,7.97
2023-09-09T19:51:37.742Z,7.70
2023-09-09T19:54:06.404Z,7.80
2023-09-09T19:56:35.783Z,7.00
2023-09-09T19:59:04.761Z,6.57
2023-09-09T20:01:32.725Z,7.97
2023-09-09T20:04:00.782Z,7.23
2023-09-09T20:06:28.716Z,7.17
2023-09-09T20:08:56.621Z,7.23
2023-09-09T20:11:24.566Z,7.73
2023-09-09T20:13:53.889Z,7.20
2023-09-09T20:16:21.911Z,7.07
2023-09-09T20:18:50.132Z,6.60
2023-09-09T20:21:18.293Z,7.10
2023-09-09T20:23:46.134Z,7.60
2023-09-09T20:26:14.893Z,7.53
2023-09-09T20:28:42.869Z,7.17
2023-09-09T20:31:12.308Z,7.30
2023-09-09T20:33:40.473Z,8.03
2023-09-09T20:36:08.798Z,7.60
2023-09-09T20:38:37.341Z,8.40
2023-09-09T20:41:06.031Z,7.63
2023-09-09T20:43:34.029Z,7.87
2023-09-09T20:46:09.619Z,7.40
2023-09-09T20:48:39.749Z,7.40
2023-09-09T20:51:07.997Z,7.85
2023-09-09T20:53:36.010Z,7.30
2023-09-09T20:56:10.874Z,7.70
2023-09-09T20:58:39.334Z,7.57
2023-09-09T21:01:07.809Z,7.10
2023-09-09T21:03:35.814Z,8.17
2023-09-09T21:06:05.233Z,7.23
2023-09-09T21:08:33.240Z,7.20
2023-09-09T21:11:01.200Z,7.80
2023-09-09T21:13:29.140Z,7.93
2023-09-09T21:15:57.013Z,7.10
2023-09-09T21:18:24.927Z,7.50
2023-09-09T21:20:52.817Z,8.03
2023-09-09T21:23:22.007Z,7.13
2023-09-09T21:25:49.913Z,7.30
2023-09-09T21:28:17.809Z,7.23
2023-09-09T21:30:45.824Z,7.27
2023-09-09T21:33:13.875Z,7.67
2023-09-09T21:35:41.834Z,9.43
2023-09-09T21:38:09.736Z,7.43
2023-09-09T21:40:39.070Z,7.40
2023-09-09T21:43:06.985Z,7.40
2023-09-09T21:45:34.861Z,7.77
2023-09-09T21:48:03.433Z,7.67
2023-09-09T21:50:31.433Z,7.23
2023-09-09T21:52:59.338Z,7.60
2023-09-09T21:55:27.394Z,7.10
2023-09-09T21:57:56.783Z,7.57
2023-09-09T22:00:24.863Z,7.20
2023-09-09T22:02:53.386Z,7.77
2023-09-09T22:05:21.748Z,7.40
2023-09-09T22:07:49.754Z,8.13
2023-09-09T22:10:17.908Z,7.37
2023-09-09T22:12:45.957Z,7.57
2023-09-09T22:15:17.158Z,7.97
2023-09-09T22:17:45.179Z,7.90
2023-09-09T22:20:16.195Z,7.87
2023-09-09T22:22:44.108Z,7.50
2023-09-09T22:25:13.578Z,7.40
2023-09-09T22:27:41.647Z,8.17
2023-09-09T22:30:10.362Z,8.00
2023-09-09T22:32:39.614Z,7.80
2023-09-09T22:35:08.828Z,7.37
2023-09-09T22:37:38.238Z,6.80
2023-09-09T22:40:10.561Z,7.47
2023-09-09T22:42:38.511Z,7.80
2023-09-09T22:45:07.002Z,7.97
2023-09-09T22:47:34.922Z,7.03
2023-09-09T22:50:04.848Z,7.90
2023-09-09T22:52:32.838Z,8.00
2023-09-09T22:55:01.461Z,7.37
2023-09-09T22:57:29.484Z,7.47
2023-09-09T22:59:57.329Z,7.50
2023-09-09T23:02:25.607Z,8.57
2023-09-09T23:04:55.050Z,7.50
2023-09-09T23:07:24.967Z,7.60
2023-09-09T23:09:54.823Z,7.57
2023-09-09T23:12:24.033Z,7.47
2023-09-09T23:14:51.955Z,8.17
2023-09-09T23:17:19.858Z,8.27
2023-09-09T23:19:47.825Z,6.93
2023-09-09T23:22:15.761Z,7.90
2023-09-09T23:24:44.925Z,7.70
2023-09-09T23:27:12.793Z,6.70
2023-09-09T23:29:40.614Z,8.47
2023-09-09T23:32:08.911Z,7.53
2023-09-09T23:34:38.837Z,6.90
2023-09-09T23:37:06.951Z,7.20
2023-09-09T23:39:34.869Z,8.17
2023-09-09T23:42:06.499Z,8.23
2023-09-09T23:44:34.411Z,7.23
2023-09-09T23:47:02.375Z,7.43
2023-09-09T23:49:30.398Z,7.73
2023-09-09T23:51:58.291Z,8.00
2023-09-09T23:54:26.188Z,8.30
2023-09-09T23:56:54.582Z,7.50
2023-09-09T23:59:23.866Z,8.13
